Wildomar, CA (92595)

11:34 PM PDT on September 18, 2014 (GMT -0700)
Stonehurst | Change Station
CLOSE
Current Station
Personal Weather Station
Location: Wildomar, CA
Elevation: 1253 ft
Nearby Weather Stations

Elev 1253 ft 33.59 °N, 117.25 °W | Updated 9 minutes ago

Partly Cloudy
Partly Cloudy
67.1 °F
Feels Like 67.1 °F
N
0.0
Wind Variable Wind from South
Gusts 4.0 mph

Today
High -- | Low -- °F
--% Chance of Precip.
Yesterday
High -- | Low -- °F
Precip. -- in
6:34 AM 6:51 PM
Waning Crescent, 21% visible
Pressure 29.90 in
Visibility 10.0 miles
Clouds Overcast 800 ft
Dew Point 65 °F
Humidity 91%
Rainfall 0.00 in
Snow Depth 0 in , 1 in , 0 in
UV 0 out of 12
Pollen 6.10 out of 12
Ozone Good
PM2.5 Good
Flu Activity Not available.
METAR KF70 190615Z AUTO 22005KT 10SM OVC008 20/17 A2990 RMK AO1

More Conditions Fewer Conditions

Pressure 29.90 in
Visibility 10.0 miles
Clouds Overcast 800 ft
Dew Point 65 °F
Humidity 91%
Rainfall 0.00 in
Snow Depth 0 in , 1 in , 0 in
UV 0 out of 12
Pollen 6.10 out of 12
Ozone Good
PM2.5 Good
Flu Activity Not available.
METAR KF70 190615Z AUTO 22005KT 10SM OVC008 20/17 A2990 RMK AO1

More Conditions Fewer Conditions

10-Day Weather Forecast

Almanac

Astronomy

Sep. 18, 2014 Rise Set
Actual Time 6:34 AM PDT 6:51 PM PDT
Civil Twilight 6:09 AM PDT 7:16 PM PDT
Nautical Twilight 5:40 AM PDT 7:45 PM PDT
Astronomical Twilight 5:10 AM PDT 8:14 PM PDT
Moon 1:41 AM PDT (9/18) 3:35 PM PDT (9/18)
Length of Visible Light 13h 06m
Length of Day
12h 16m
Tomorrow will be 2m 4s shorter.
Waning Crescent, 21% of the Moon is Illuminated
Sep 19
Waning Crescent
Sep 24
New
Oct 1
First Quarter
Oct 8
Full
Oct 15
Last Quarter

Community

WunderPhotos

Upload Photos

1,754,575 photos uploaded!

Nearby

Air Quality

  Air Quality AQ Index Pollutant
Yesterday Good
PM10
Yesterday Good
OZONE
Current Good
PM2.5
Current Good
OZONE
Friday Good
PM10
Friday Moderate
OZONE
Friday Good
CO
Friday Good
NO2

Snow Depth

Station Depth Elevation
Heavenly Valley 0 in 8850 ft
Spratt Creek 1 in 6200 ft
Rubicon #2 0 in 7500 ft
Leavitt Meadows 0 in 7200 ft
Burnside Lake 1 in 8139 ft

Earthquake Activity

City Distance Mag. Time & Date
La Quinta, California 46 miles 2.7 8:59 PM PDT
2014-09-15
Minimum magnitude displayed is 2.5.

Coastal Water Temperatures

Place Temperature
La Jolla, CA 69.1 °F
San Diego, CA 78.1 °F

Nearby Weather Stations